sensor_id;sensor_type;location;lat;lon;timestamp;P1;durP1;ratioP1;P2;durP2;ratioP2
66429;SDS011;53242;51.694;10.006;2023-05-19T00:02:21;5.10;;;1.70;;
66429;SDS011;53242;51.694;10.006;2023-05-19T00:04:44;4.15;;;1.30;;
66429;SDS011;53242;51.694;10.006;2023-05-19T00:07:09;4.18;;;1.30;;
66429;SDS011;53242;51.694;10.006;2023-05-19T00:09:32;4.45;;;1.85;;
66429;SDS011;53242;51.694;10.006;2023-05-19T00:11:55;7.22;;;1.58;;
66429;SDS011;53242;51.694;10.006;2023-05-19T00:14:17;6.65;;;1.70;;
66429;SDS011;53242;51.694;10.006;2023-05-19T00:16:40;4.75;;;1.60;;
66429;SDS011;53242;51.694;10.006;2023-05-19T00:19:03;6.25;;;1.40;;
66429;SDS011;53242;51.694;10.006;2023-05-19T00:21:27;3.60;;;1.50;;
66429;SDS011;53242;51.694;10.006;2023-05-19T00:23:50;4.00;;;1.38;;
66429;SDS011;53242;51.694;10.006;2023-05-19T00:26:13;3.25;;;1.58;;
66429;SDS011;53242;51.694;10.006;2023-05-19T00:28:46;5.43;;;1.48;;
66429;SDS011;53242;51.694;10.006;2023-05-19T00:31:09;5.35;;;2.00;;
66429;SDS011;53242;51.694;10.006;2023-05-19T00:33:31;4.68;;;1.60;;
66429;SDS011;53242;51.694;10.006;2023-05-19T00:35:57;4.07;;;1.50;;
66429;SDS011;53242;51.694;10.006;2023-05-19T00:38:19;4.80;;;1.48;;
66429;SDS011;53242;51.694;10.006;2023-05-19T00:40:42;3.45;;;1.70;;
66429;SDS011;53242;51.694;10.006;2023-05-19T00:43:04;4.05;;;1.33;;
66429;SDS011;53242;51.694;10.006;2023-05-19T00:45:29;3.63;;;1.48;;
66429;SDS011;53242;51.694;10.006;2023-05-19T00:47:51;7.82;;;1.92;;
66429;SDS011;53242;51.694;10.006;2023-05-19T00:50:14;9.13;;;1.88;;
66429;SDS011;53242;51.694;10.006;2023-05-19T00:52:36;5.70;;;1.60;;
66429;SDS011;53242;51.694;10.006;2023-05-19T00:54:59;4.07;;;1.40;;
66429;SDS011;53242;51.694;10.006;2023-05-19T00:57:21;5.90;;;1.50;;
66429;SDS011;53242;51.694;10.006;2023-05-19T00:59:44;5.28;;;1.50;;
66429;SDS011;53242;51.694;10.006;2023-05-19T01:02:07;6.65;;;1.85;;
66429;SDS011;53242;51.694;10.006;2023-05-19T01:04:30;7.28;;;1.70;;
66429;SDS011;53242;51.694;10.006;2023-05-19T01:06:55;6.43;;;1.80;;
66429;SDS011;53242;51.694;10.006;2023-05-19T01:09:18;5.80;;;1.85;;
66429;SDS011;53242;51.694;10.006;2023-05-19T01:11:44;6.93;;;2.47;;
66429;SDS011;53242;51.694;10.006;2023-05-19T01:14:06;3.58;;;1.50;;
66429;SDS011;53242;51.694;10.006;2023-05-19T01:16:36;5.55;;;1.65;;
66429;SDS011;53242;51.694;10.006;2023-05-19T01:19:12;6.38;;;1.60;;
66429;SDS011;53242;51.694;10.006;2023-05-19T01:22:47;6.63;;;1.60;;
66429;SDS011;53242;51.694;10.006;2023-05-19T01:30:35;4.57;;;1.80;;
66429;SDS011;53242;51.694;10.006;2023-05-19T01:33:01;6.13;;;1.60;;
66429;SDS011;53242;51.694;10.006;2023-05-19T01:35:27;4.70;;;1.33;;
66429;SDS011;53242;51.694;10.006;2023-05-19T01:37:54;6.80;;;1.73;;
66429;SDS011;53242;51.694;10.006;2023-05-19T01:40:19;5.38;;;1.70;;
66429;SDS011;53242;51.694;10.006;2023-05-19T01:42:43;9.13;;;1.55;;
66429;SDS011;53242;51.694;10.006;2023-05-19T01:45:07;4.20;;;1.60;;
66429;SDS011;53242;51.694;10.006;2023-05-19T01:47:32;6.47;;;1.60;;
66429;SDS011;53242;51.694;10.006;2023-05-19T01:49:59;5.82;;;1.60;;
66429;SDS011;53242;51.694;10.006;2023-05-19T01:52:22;5.97;;;1.85;;
66429;SDS011;53242;51.694;10.006;2023-05-19T01:54:44;5.22;;;1.75;;
66429;SDS011;53242;51.694;10.006;2023-05-19T01:59:47;3.97;;;1.80;;
66429;SDS011;53242;51.694;10.006;2023-05-19T02:02:34;4.57;;;1.93;;
66429;SDS011;53242;51.694;10.006;2023-05-19T02:05:08;6.38;;;2.10;;
66429;SDS011;53242;51.694;10.006;2023-05-19T02:08:04;8.60;;;2.25;;
66429;SDS011;53242;51.694;10.006;2023-05-19T02:10:43;4.40;;;1.85;;
66429;SDS011;53242;51.694;10.006;2023-05-19T02:13:10;5.65;;;2.10;;
66429;SDS011;53242;51.694;10.006;2023-05-19T02:15:39;6.07;;;2.00;;
66429;SDS011;53242;51.694;10.006;2023-05-19T02:18:05;6.50;;;1.92;;
66429;SDS011;53242;51.694;10.006;2023-05-19T02:20:31;5.28;;;1.90;;
66429;SDS011;53242;51.694;10.006;2023-05-19T02:22:53;8.18;;;1.90;;
66429;SDS011;53242;51.694;10.006;2023-05-19T02:25:16;7.15;;;2.00;;
66429;SDS011;53242;51.694;10.006;2023-05-19T02:27:38;7.65;;;2.00;;
66429;SDS011;53242;51.694;10.006;2023-05-19T02:30:03;4.38;;;1.80;;
66429;SDS011;53242;51.694;10.006;2023-05-19T02:32:26;5.10;;;1.88;;
66429;SDS011;53242;51.694;10.006;2023-05-19T02:34:49;6.22;;;2.10;;
66429;SDS011;53242;51.694;10.006;2023-05-19T02:37:12;8.63;;;2.00;;
66429;SDS011;53242;51.694;10.006;2023-05-19T02:39:35;5.85;;;2.10;;
66429;SDS011;53242;51.694;10.006;2023-05-19T02:41:57;5.72;;;1.92;;
66429;SDS011;53242;51.694;10.006;2023-05-19T02:44:20;6.30;;;2.15;;
66429;SDS011;53242;51.694;10.006;2023-05-19T02:46:42;9.10;;;2.03;;
66429;SDS011;53242;51.694;10.006;2023-05-19T02:49:05;5.40;;;1.92;;
66429;SDS011;53242;51.694;10.006;2023-05-19T02:51:27;5.68;;;2.20;;
66429;SDS011;53242;51.694;10.006;2023-05-19T02:53:50;7.25;;;1.83;;
66429;SDS011;53242;51.694;10.006;2023-05-19T02:56:12;5.60;;;1.90;;
66429;SDS011;53242;51.694;10.006;2023-05-19T02:58:34;4.80;;;1.83;;
66429;SDS011;53242;51.694;10.006;2023-05-19T03:00:57;6.10;;;1.63;;
66429;SDS011;53242;51.694;10.006;2023-05-19T03:03:19;5.15;;;1.80;;
66429;SDS011;53242;51.694;10.006;2023-05-19T03:05:42;6.05;;;2.00;;
66429;SDS011;53242;51.694;10.006;2023-05-19T03:08:04;5.57;;;1.90;;
66429;SDS011;53242;51.694;10.006;2023-05-19T03:10:27;5.25;;;2.08;;
66429;SDS011;53242;51.694;10.006;2023-05-19T03:12:49;7.75;;;2.13;;
66429;SDS011;53242;51.694;10.006;2023-05-19T03:15:12;6.78;;;2.00;;
66429;SDS011;53242;51.694;10.006;2023-05-19T03:17:35;6.53;;;1.95;;
66429;SDS011;53242;51.694;10.006;2023-05-19T03:19:58;6.72;;;2.00;;
66429;SDS011;53242;51.694;10.006;2023-05-19T03:22:22;7.20;;;2.05;;
66429;SDS011;53242;51.694;10.006;2023-05-19T03:24:44;5.53;;;1.55;;
66429;SDS011;53242;51.694;10.006;2023-05-19T03:27:07;5.70;;;2.33;;
66429;SDS011;53242;51.694;10.006;2023-05-19T03:29:29;5.22;;;1.90;;
66429;SDS011;53242;51.694;10.006;2023-05-19T03:31:52;6.20;;;1.80;;
66429;SDS011;53242;51.694;10.006;2023-05-19T03:34:15;7.80;;;1.83;;
66429;SDS011;53242;51.694;10.006;2023-05-19T03:36:38;6.72;;;2.38;;
66429;SDS011;53242;51.694;10.006;2023-05-19T03:39:03;7.30;;;2.30;;
66429;SDS011;53242;51.694;10.006;2023-05-19T03:41:27;7.20;;;2.00;;
66429;SDS011;53242;51.694;10.006;2023-05-19T03:43:49;4.93;;;1.90;;
66429;SDS011;53242;51.694;10.006;2023-05-19T03:46:12;6.30;;;1.73;;
66429;SDS011;53242;51.694;10.006;2023-05-19T03:49:10;4.80;;;1.92;;
66429;SDS011;53242;51.694;10.006;2023-05-19T03:51:55;6.35;;;2.15;;
66429;SDS011;53242;51.694;10.006;2023-05-19T03:54:44;5.15;;;1.70;;
66429;SDS011;53242;51.694;10.006;2023-05-19T03:57:08;8.73;;;1.83;;
66429;SDS011;53242;51.694;10.006;2023-05-19T03:59:30;9.25;;;2.20;;
66429;SDS011;53242;51.694;10.006;2023-05-19T04:01:54;5.03;;;1.80;;
66429;SDS011;53242;51.694;10.006;2023-05-19T04:04:17;7.22;;;1.98;;
66429;SDS011;53242;51.694;10.006;2023-05-19T04:06:40;6.43;;;2.03;;
66429;SDS011;53242;51.694;10.006;2023-05-19T04:09:09;5.57;;;1.80;;
66429;SDS011;53242;51.694;10.006;2023-05-19T04:11:33;5.82;;;1.80;;
66429;SDS011;53242;51.694;10.006;2023-05-19T04:13:56;7.57;;;1.90;;
66429;SDS011;53242;51.694;10.006;2023-05-19T04:16:18;6.78;;;2.00;;
66429;SDS011;53242;51.694;10.006;2023-05-19T04:18:40;6.18;;;2.20;;
66429;SDS011;53242;51.694;10.006;2023-05-19T04:21:03;10.23;;;2.15;;
66429;SDS011;53242;51.694;10.006;2023-05-19T04:23:26;7.07;;;1.88;;
66429;SDS011;53242;51.694;10.006;2023-05-19T04:25:48;7.18;;;2.05;;
66429;SDS011;53242;51.694;10.006;2023-05-19T04:28:11;7.63;;;1.92;;
66429;SDS011;53242;51.694;10.006;2023-05-19T04:30:33;5.70;;;2.20;;
66429;SDS011;53242;51.694;10.006;2023-05-19T04:32:57;6.50;;;2.20;;
66429;SDS011;53242;51.694;10.006;2023-05-19T04:35:22;8.05;;;2.17;;
66429;SDS011;53242;51.694;10.006;2023-05-19T04:37:45;8.02;;;2.28;;
66429;SDS011;53242;51.694;10.006;2023-05-19T04:40:09;8.65;;;2.15;;
66429;SDS011;53242;51.694;10.006;2023-05-19T04:42:33;6.95;;;2.35;;
66429;SDS011;53242;51.694;10.006;2023-05-19T04:44:57;6.40;;;2.35;;
66429;SDS011;53242;51.694;10.006;2023-05-19T04:47:23;7.57;;;3.03;;
66429;SDS011;53242;51.694;10.006;2023-05-19T04:49:48;8.82;;;2.38;;
66429;SDS011;53242;51.694;10.006;2023-05-19T04:52:11;6.00;;;1.83;;
66429;SDS011;53242;51.694;10.006;2023-05-19T04:54:35;8.43;;;2.50;;
66429;SDS011;53242;51.694;10.006;2023-05-19T04:56:58;6.35;;;2.00;;
66429;SDS011;53242;51.694;10.006;2023-05-19T04:59:23;9.23;;;2.17;;
66429;SDS011;53242;51.694;10.006;2023-05-19T05:01:46;11.60;;;2.53;;
66429;SDS011;53242;51.694;10.006;2023-05-19T05:04:09;5.38;;;2.10;;
66429;SDS011;53242;51.694;10.006;2023-05-19T05:06:32;6.25;;;2.05;;
66429;SDS011;53242;51.694;10.006;2023-05-19T05:08:54;6.65;;;2.33;;
66429;SDS011;53242;51.694;10.006;2023-05-19T05:11:17;6.35;;;1.98;;
66429;SDS011;53242;51.694;10.006;2023-05-19T05:13:40;6.38;;;2.13;;
66429;SDS011;53242;51.694;10.006;2023-05-19T05:16:03;5.38;;;2.05;;
66429;SDS011;53242;51.694;10.006;2023-05-19T05:18:27;6.97;;;2.03;;
66429;SDS011;53242;51.694;10.006;2023-05-19T05:20:51;6.85;;;1.80;;
66429;SDS011;53242;51.694;10.006;2023-05-19T05:23:14;4.57;;;1.90;;
66429;SDS011;53242;51.694;10.006;2023-05-19T05:25:40;5.88;;;2.00;;
66429;SDS011;53242;51.694;10.006;2023-05-19T05:28:02;6.22;;;2.30;;
66429;SDS011;53242;51.694;10.006;2023-05-19T05:32:49;6.93;;;2.20;;
66429;SDS011;53242;51.694;10.006;2023-05-19T05:35:27;7.40;;;2.40;;
66429;SDS011;53242;51.694;10.006;2023-05-19T05:37:49;7.47;;;2.15;;
66429;SDS011;53242;51.694;10.006;2023-05-19T05:40:12;7.30;;;1.95;;
66429;SDS011;53242;51.694;10.006;2023-05-19T05:42:34;8.38;;;2.30;;
66429;SDS011;53242;51.694;10.006;2023-05-19T05:44:57;7.07;;;2.13;;
66429;SDS011;53242;51.694;10.006;2023-05-19T05:47:19;6.38;;;2.28;;
66429;SDS011;53242;51.694;10.006;2023-05-19T05:49:42;6.15;;;1.83;;
66429;SDS011;53242;51.694;10.006;2023-05-19T05:52:06;7.38;;;2.10;;
66429;SDS011;53242;51.694;10.006;2023-05-19T05:54:37;5.03;;;1.88;;
66429;SDS011;53242;51.694;10.006;2023-05-19T05:57:00;7.90;;;1.95;;
66429;SDS011;53242;51.694;10.006;2023-05-19T05:59:23;4.72;;;1.90;;
66429;SDS011;53242;51.694;10.006;2023-05-19T06:01:46;3.85;;;1.90;;
66429;SDS011;53242;51.694;10.006;2023-05-19T06:04:10;6.38;;;2.55;;
66429;SDS011;53242;51.694;10.006;2023-05-19T06:06:33;5.45;;;2.20;;
66429;SDS011;53242;51.694;10.006;2023-05-19T06:08:57;6.78;;;2.00;;
66429;SDS011;53242;51.694;10.006;2023-05-19T06:11:20;8.70;;;2.22;;
66429;SDS011;53242;51.694;10.006;2023-05-19T06:13:43;8.73;;;2.35;;
66429;SDS011;53242;51.694;10.006;2023-05-19T06:16:12;7.85;;;2.35;;
66429;SDS011;53242;51.694;10.006;2023-05-19T06:18:37;8.25;;;2.20;;
66429;SDS011;53242;51.694;10.006;2023-05-19T06:21:00;6.30;;;2.40;;
66429;SDS011;53242;51.694;10.006;2023-05-19T06:23:23;5.53;;;2.05;;
66429;SDS011;53242;51.694;10.006;2023-05-19T06:25:47;6.75;;;2.25;;
66429;SDS011;53242;51.694;10.006;2023-05-19T06:28:10;8.13;;;2.22;;
66429;SDS011;53242;51.694;10.006;2023-05-19T06:30:33;7.90;;;2.22;;
66429;SDS011;53242;51.694;10.006;2023-05-19T06:33:09;5.65;;;2.25;;
66429;SDS011;53242;51.694;10.006;2023-05-19T06:35:33;7.15;;;2.42;;
66429;SDS011;53242;51.694;10.006;2023-05-19T06:37:56;6.50;;;2.35;;
66429;SDS011;53242;51.694;10.006;2023-05-19T06:40:18;6.60;;;2.08;;
66429;SDS011;53242;51.694;10.006;2023-05-19T06:42:41;7.68;;;2.40;;
66429;SDS011;53242;51.694;10.006;2023-05-19T06:47:34;5.57;;;2.38;;
66429;SDS011;53242;51.694;10.006;2023-05-19T06:49:57;7.07;;;2.38;;
66429;SDS011;53242;51.694;10.006;2023-05-19T06:52:24;7.25;;;2.55;;
66429;SDS011;53242;51.694;10.006;2023-05-19T06:54:47;8.05;;;2.70;;
66429;SDS011;53242;51.694;10.006;2023-05-19T06:57:11;6.38;;;2.20;;
66429;SDS011;53242;51.694;10.006;2023-05-19T06:59:33;5.10;;;2.30;;
66429;SDS011;53242;51.694;10.006;2023-05-19T07:01:58;8.98;;;2.55;;
66429;SDS011;53242;51.694;10.006;2023-05-19T07:04:21;6.90;;;2.30;;
66429;SDS011;53242;51.694;10.006;2023-05-19T07:06:43;7.82;;;2.50;;
66429;SDS011;53242;51.694;10.006;2023-05-19T07:09:06;8.63;;;2.58;;
66429;SDS011;53242;51.694;10.006;2023-05-19T07:11:28;9.95;;;2.38;;
66429;SDS011;53242;51.694;10.006;2023-05-19T07:13:51;6.93;;;2.47;;
66429;SDS011;53242;51.694;10.006;2023-05-19T07:16:19;9.23;;;2.28;;
66429;SDS011;53242;51.694;10.006;2023-05-19T07:18:42;7.03;;;2.00;;
66429;SDS011;53242;51.694;10.006;2023-05-19T07:21:06;7.82;;;2.30;;
66429;SDS011;53242;51.694;10.006;2023-05-19T07:23:28;6.45;;;2.20;;
66429;SDS011;53242;51.694;10.006;2023-05-19T07:25:54;7.38;;;2.38;;
66429;SDS011;53242;51.694;10.006;2023-05-19T07:28:19;6.05;;;2.33;;
66429;SDS011;53242;51.694;10.006;2023-05-19T07:30:41;9.15;;;2.83;;
66429;SDS011;53242;51.694;10.006;2023-05-19T07:33:04;8.00;;;2.42;;
66429;SDS011;53242;51.694;10.006;2023-05-19T07:35:27;7.93;;;2.42;;
66429;SDS011;53242;51.694;10.006;2023-05-19T07:37:50;8.45;;;2.55;;
66429;SDS011;53242;51.694;10.006;2023-05-19T07:40:13;5.85;;;2.58;;
66429;SDS011;53242;51.694;10.006;2023-05-19T07:42:39;10.05;;;3.05;;
66429;SDS011;53242;51.694;10.006;2023-05-19T07:45:02;8.85;;;2.33;;
66429;SDS011;53242;51.694;10.006;2023-05-19T07:47:24;6.47;;;2.35;;
66429;SDS011;53242;51.694;10.006;2023-05-19T07:49:47;7.55;;;2.35;;
66429;SDS011;53242;51.694;10.006;2023-05-19T07:52:09;9.13;;;2.58;;
66429;SDS011;53242;51.694;10.006;2023-05-19T07:54:32;5.43;;;2.30;;
66429;SDS011;53242;51.694;10.006;2023-05-19T07:56:54;5.88;;;2.30;;
66429;SDS011;53242;51.694;10.006;2023-05-19T07:59:17;8.93;;;2.70;;
66429;SDS011;53242;51.694;10.006;2023-05-19T08:01:39;5.60;;;2.45;;
66429;SDS011;53242;51.694;10.006;2023-05-19T08:04:01;8.77;;;2.25;;
66429;SDS011;53242;51.694;10.006;2023-05-19T08:06:24;7.68;;;2.13;;
66429;SDS011;53242;51.694;10.006;2023-05-19T08:08:46;6.95;;;2.05;;
66429;SDS011;53242;51.694;10.006;2023-05-19T08:11:09;6.32;;;2.17;;
66429;SDS011;53242;51.694;10.006;2023-05-19T08:13:31;8.65;;;2.28;;
66429;SDS011;53242;51.694;10.006;2023-05-19T08:15:54;6.53;;;2.20;;
66429;SDS011;53242;51.694;10.006;2023-05-19T08:18:20;9.73;;;3.40;;
66429;SDS011;53242;51.694;10.006;2023-05-19T08:20:42;5.90;;;1.80;;
66429;SDS011;53242;51.694;10.006;2023-05-19T08:23:05;6.75;;;1.95;;
66429;SDS011;53242;51.694;10.006;2023-05-19T08:25:27;8.48;;;2.00;;
66429;SDS011;53242;51.694;10.006;2023-05-19T08:27:50;8.27;;;2.10;;
66429;SDS011;53242;51.694;10.006;2023-05-19T08:30:13;7.22;;;2.13;;
66429;SDS011;53242;51.694;10.006;2023-05-19T08:32:35;5.93;;;2.22;;
66429;SDS011;53242;51.694;10.006;2023-05-19T08:34:57;6.65;;;2.05;;
66429;SDS011;53242;51.694;10.006;2023-05-19T08:37:20;5.53;;;1.60;;
66429;SDS011;53242;51.694;10.006;2023-05-19T08:39:42;6.38;;;1.67;;
66429;SDS011;53242;51.694;10.006;2023-05-19T08:42:05;4.13;;;2.00;;
66429;SDS011;53242;51.694;10.006;2023-05-19T08:44:29;6.07;;;1.88;;
66429;SDS011;53242;51.694;10.006;2023-05-19T08:46:53;6.47;;;1.95;;
66429;SDS011;53242;51.694;10.006;2023-05-19T08:49:17;4.03;;;1.73;;
66429;SDS011;53242;51.694;10.006;2023-05-19T08:52:23;5.13;;;1.88;;
66429;SDS011;53242;51.694;10.006;2023-05-19T08:54:59;6.05;;;1.50;;
66429;SDS011;53242;51.694;10.006;2023-05-19T08:57:30;9.25;;;2.78;;
66429;SDS011;53242;51.694;10.006;2023-05-19T08:59:53;4.63;;;1.60;;
66429;SDS011;53242;51.694;10.006;2023-05-19T09:02:17;5.53;;;1.50;;
66429;SDS011;53242;51.694;10.006;2023-05-19T09:04:40;4.30;;;1.42;;
66429;SDS011;53242;51.694;10.006;2023-05-19T09:07:06;6.10;;;1.63;;
66429;SDS011;53242;51.694;10.006;2023-05-19T09:09:30;4.60;;;1.58;;
66429;SDS011;53242;51.694;10.006;2023-05-19T09:11:52;6.78;;;1.67;;
66429;SDS011;53242;51.694;10.006;2023-05-19T09:14:15;3.58;;;1.30;;
66429;SDS011;53242;51.694;10.006;2023-05-19T09:16:37;5.45;;;1.38;;
66429;SDS011;53242;51.694;10.006;2023-05-19T09:19:00;6.60;;;1.40;;
66429;SDS011;53242;51.694;10.006;2023-05-19T09:21:26;3.55;;;1.30;;
66429;SDS011;53242;51.694;10.006;2023-05-19T09:23:51;5.65;;;1.30;;
66429;SDS011;53242;51.694;10.006;2023-05-19T09:26:16;1.58;;;0.98;;
66429;SDS011;53242;51.694;10.006;2023-05-19T09:28:39;5.88;;;1.60;;
66429;SDS011;53242;51.694;10.006;2023-05-19T09:31:05;3.95;;;1.40;;
66429;SDS011;53242;51.694;10.006;2023-05-19T09:33:29;2.60;;;1.20;;
66429;SDS011;53242;51.694;10.006;2023-05-19T09:35:54;4.95;;;1.33;;
66429;SDS011;53242;51.694;10.006;2023-05-19T09:38:17;4.05;;;1.25;;
66429;SDS011;53242;51.694;10.006;2023-05-19T09:40:40;3.83;;;1.40;;
66429;SDS011;53242;51.694;10.006;2023-05-19T09:43:03;2.15;;;1.13;;
66429;SDS011;53242;51.694;10.006;2023-05-19T09:45:27;2.58;;;1.17;;
66429;SDS011;53242;51.694;10.006;2023-05-19T09:47:49;3.15;;;1.30;;
66429;SDS011;53242;51.694;10.006;2023-05-19T09:50:12;3.80;;;1.27;;
66429;SDS011;53242;51.694;10.006;2023-05-19T09:52:38;3.75;;;1.38;;
66429;SDS011;53242;51.694;10.006;2023-05-19T09:55:02;5.05;;;1.52;;
66429;SDS011;53242;51.694;10.006;2023-05-19T09:57:26;4.35;;;1.60;;
66429;SDS011;53242;51.694;10.006;2023-05-19T09:59:49;5.05;;;1.45;;
66429;SDS011;53242;51.694;10.006;2023-05-19T10:02:14;4.85;;;1.50;;
66429;SDS011;53242;51.694;10.006;2023-05-19T10:04:39;5.10;;;1.38;;
66429;SDS011;53242;51.694;10.006;2023-05-19T10:07:03;2.45;;;1.20;;
66429;SDS011;53242;51.694;10.006;2023-05-19T10:09:27;3.95;;;1.25;;
66429;SDS011;53242;51.694;10.006;2023-05-19T10:11:51;3.03;;;1.60;;
66429;SDS011;53242;51.694;10.006;2023-05-19T10:14:15;4.22;;;1.30;;
66429;SDS011;53242;51.694;10.006;2023-05-19T10:16:37;3.40;;;1.30;;
66429;SDS011;53242;51.694;10.006;2023-05-19T10:19:01;5.13;;;1.45;;
66429;SDS011;53242;51.694;10.006;2023-05-19T10:21:23;2.72;;;1.25;;
66429;SDS011;53242;51.694;10.006;2023-05-19T10:23:45;4.50;;;1.30;;
66429;SDS011;53242;51.694;10.006;2023-05-19T10:26:08;6.13;;;1.30;;
66429;SDS011;53242;51.694;10.006;2023-05-19T10:28:36;2.05;;;1.10;;
66429;SDS011;53242;51.694;10.006;2023-05-19T10:31:00;3.05;;;1.25;;
66429;SDS011;53242;51.694;10.006;2023-05-19T10:33:35;6.63;;;1.40;;
66429;SDS011;53242;51.694;10.006;2023-05-19T10:39:16;2.55;;;1.20;;
66429;SDS011;53242;51.694;10.006;2023-05-19T10:41:47;3.17;;;1.20;;
66429;SDS011;53242;51.694;10.006;2023-05-19T10:45:06;3.92;;;1.35;;
66429;SDS011;53242;51.694;10.006;2023-05-19T10:47:07;2.42;;;1.15;;
66429;SDS011;53242;51.694;10.006;2023-05-19T10:49:35;5.60;;;1.33;;
66429;SDS011;53242;51.694;10.006;2023-05-19T10:51:58;4.40;;;1.00;;
66429;SDS011;53242;51.694;10.006;2023-05-19T10:57:04;2.15;;;0.95;;
66429;SDS011;53242;51.694;10.006;2023-05-19T10:59:31;2.63;;;1.02;;
66429;SDS011;53242;51.694;10.006;2023-05-19T11:01:56;3.10;;;1.30;;
66429;SDS011;53242;51.694;10.006;2023-05-19T11:04:18;3.30;;;1.30;;
66429;SDS011;53242;51.694;10.006;2023-05-19T11:07:00;2.35;;;1.00;;
66429;SDS011;53242;51.694;10.006;2023-05-19T11:14:10;2.58;;;1.20;;
66429;SDS011;53242;51.694;10.006;2023-05-19T11:16:36;5.43;;;1.40;;
66429;SDS011;53242;51.694;10.006;2023-05-19T11:19:03;4.20;;;1.17;;
66429;SDS011;53242;51.694;10.006;2023-05-19T11:21:39;3.75;;;1.15;;
66429;SDS011;53242;51.694;10.006;2023-05-19T11:24:09;2.78;;;1.05;;
66429;SDS011;53242;51.694;10.006;2023-05-19T11:26:38;3.20;;;1.40;;
66429;SDS011;53242;51.694;10.006;2023-05-19T11:29:01;4.40;;;1.17;;
66429;SDS011;53242;51.694;10.006;2023-05-19T11:31:24;2.55;;;1.17;;
66429;SDS011;53242;51.694;10.006;2023-05-19T11:33:49;5.65;;;1.30;;
66429;SDS011;53242;51.694;10.006;2023-05-19T11:36:11;4.28;;;1.92;;
66429;SDS011;53242;51.694;10.006;2023-05-19T11:38:34;2.63;;;1.15;;
66429;SDS011;53242;51.694;10.006;2023-05-19T11:40:56;2.47;;;1.17;;
66429;SDS011;53242;51.694;10.006;2023-05-19T11:43:21;2.35;;;1.20;;
66429;SDS011;53242;51.694;10.006;2023-05-19T11:45:46;3.00;;;1.20;;
66429;SDS011;53242;51.694;10.006;2023-05-19T11:48:12;4.38;;;1.30;;
66429;SDS011;53242;51.694;10.006;2023-05-19T11:50:34;3.03;;;1.30;;
66429;SDS011;53242;51.694;10.006;2023-05-19T11:52:59;6.93;;;1.30;;
66429;SDS011;53242;51.694;10.006;2023-05-19T11:55:22;1.92;;;1.20;;
66429;SDS011;53242;51.694;10.006;2023-05-19T12:00:16;3.00;;;1.30;;
66429;SDS011;53242;51.694;10.006;2023-05-19T12:02:39;3.25;;;1.20;;
66429;SDS011;53242;51.694;10.006;2023-05-19T12:05:01;4.78;;;1.35;;
66429;SDS011;53242;51.694;10.006;2023-05-19T12:07:24;3.03;;;1.30;;
66429;SDS011;53242;51.694;10.006;2023-05-19T12:09:47;4.47;;;1.20;;
66429;SDS011;53242;51.694;10.006;2023-05-19T12:12:17;2.97;;;1.10;;
66429;SDS011;53242;51.694;10.006;2023-05-19T12:17:13;3.33;;;1.33;;
66429;SDS011;53242;51.694;10.006;2023-05-19T12:19:37;6.15;;;1.33;;
66429;SDS011;53242;51.694;10.006;2023-05-19T12:22:00;5.57;;;1.50;;
66429;SDS011;53242;51.694;10.006;2023-05-19T12:24:24;4.25;;;1.20;;
66429;SDS011;53242;51.694;10.006;2023-05-19T12:26:46;6.57;;;1.95;;
66429;SDS011;53242;51.694;10.006;2023-05-19T12:29:11;3.05;;;1.30;;
66429;SDS011;53242;51.694;10.006;2023-05-19T12:31:34;3.65;;;1.30;;
66429;SDS011;53242;51.694;10.006;2023-05-19T12:33:56;4.85;;;1.42;;
66429;SDS011;53242;51.694;10.006;2023-05-19T12:36:19;5.38;;;1.48;;
66429;SDS011;53242;51.694;10.006;2023-05-19T12:38:45;3.40;;;1.20;;
66429;SDS011;53242;51.694;10.006;2023-05-19T12:41:11;3.67;;;1.30;;
66429;SDS011;53242;51.694;10.006;2023-05-19T12:43:34;4.25;;;1.40;;
66429;SDS011;53242;51.694;10.006;2023-05-19T12:45:57;2.92;;;1.10;;
66429;SDS011;53242;51.694;10.006;2023-05-19T12:48:29;5.40;;;1.40;;
66429;SDS011;53242;51.694;10.006;2023-05-19T12:50:52;2.80;;;1.23;;
66429;SDS011;53242;51.694;10.006;2023-05-19T12:53:16;2.95;;;1.30;;
66429;SDS011;53242;51.694;10.006;2023-05-19T12:55:43;1.90;;;1.00;;
66429;SDS011;53242;51.694;10.006;2023-05-19T12:58:06;3.53;;;1.30;;
66429;SDS011;53242;51.694;10.006;2023-05-19T13:00:28;4.30;;;1.20;;
66429;SDS011;53242;51.694;10.006;2023-05-19T13:03:03;2.42;;;1.30;;
66429;SDS011;53242;51.694;10.006;2023-05-19T13:05:27;3.10;;;1.58;;
66429;SDS011;53242;51.694;10.006;2023-05-19T13:10:16;4.68;;;1.42;;
66429;SDS011;53242;51.694;10.006;2023-05-19T13:12:39;5.63;;;1.90;;
66429;SDS011;53242;51.694;10.006;2023-05-19T13:15:01;4.07;;;1.17;;
66429;SDS011;53242;51.694;10.006;2023-05-19T13:17:24;2.90;;;1.00;;
66429;SDS011;53242;51.694;10.006;2023-05-19T13:19:47;4.28;;;1.10;;
66429;SDS011;53242;51.694;10.006;2023-05-19T13:22:10;2.72;;;1.10;;
66429;SDS011;53242;51.694;10.006;2023-05-19T13:24:32;2.90;;;1.20;;
66429;SDS011;53242;51.694;10.006;2023-05-19T13:26:55;5.55;;;1.30;;
66429;SDS011;53242;51.694;10.006;2023-05-19T13:29:17;2.88;;;1.17;;
66429;SDS011;53242;51.694;10.006;2023-05-19T13:31:40;3.22;;;1.10;;
66429;SDS011;53242;51.694;10.006;2023-05-19T13:34:02;1.95;;;1.10;;
66429;SDS011;53242;51.694;10.006;2023-05-19T13:36:25;2.97;;;1.13;;
66429;SDS011;53242;51.694;10.006;2023-05-19T13:38:49;4.20;;;1.30;;
66429;SDS011;53242;51.694;10.006;2023-05-19T13:41:11;3.20;;;1.30;;
66429;SDS011;53242;51.694;10.006;2023-05-19T13:43:34;1.98;;;1.10;;
66429;SDS011;53242;51.694;10.006;2023-05-19T13:45:57;7.55;;;1.77;;
66429;SDS011;53242;51.694;10.006;2023-05-19T13:48:19;2.72;;;1.20;;
66429;SDS011;53242;51.694;10.006;2023-05-19T13:50:42;3.55;;;1.10;;
66429;SDS011;53242;51.694;10.006;2023-05-19T13:53:04;3.28;;;1.10;;
66429;SDS011;53242;51.694;10.006;2023-05-19T13:55:27;3.47;;;1.25;;
66429;SDS011;53242;51.694;10.006;2023-05-19T13:57:49;4.60;;;1.35;;
66429;SDS011;53242;51.694;10.006;2023-05-19T14:00:12;4.75;;;1.50;;
66429;SDS011;53242;51.694;10.006;2023-05-19T14:02:35;5.38;;;1.60;;
66429;SDS011;53242;51.694;10.006;2023-05-19T14:04:58;2.33;;;1.13;;
66429;SDS011;53242;51.694;10.006;2023-05-19T14:07:21;3.90;;;1.58;;
66429;SDS011;53242;51.694;10.006;2023-05-19T14:09:43;2.83;;;1.10;;
66429;SDS011;53242;51.694;10.006;2023-05-19T14:12:07;3.60;;;1.15;;
66429;SDS011;53242;51.694;10.006;2023-05-19T14:14:31;2.45;;;1.17;;
66429;SDS011;53242;51.694;10.006;2023-05-19T14:16:54;2.72;;;0.93;;
66429;SDS011;53242;51.694;10.006;2023-05-19T14:19:17;2.63;;;1.27;;
66429;SDS011;53242;51.694;10.006;2023-05-19T14:21:39;7.03;;;1.40;;
66429;SDS011;53242;51.694;10.006;2023-05-19T14:24:02;3.97;;;1.17;;
66429;SDS011;53242;51.694;10.006;2023-05-19T14:26:24;2.60;;;1.17;;
66429;SDS011;53242;51.694;10.006;2023-05-19T14:28:47;3.05;;;1.20;;
66429;SDS011;53242;51.694;10.006;2023-05-19T14:31:12;3.63;;;1.48;;
66429;SDS011;53242;51.694;10.006;2023-05-19T14:33:35;3.58;;;1.13;;
66429;SDS011;53242;51.694;10.006;2023-05-19T14:35:57;2.60;;;1.17;;
66429;SDS011;53242;51.694;10.006;2023-05-19T14:38:23;3.30;;;1.10;;
66429;SDS011;53242;51.694;10.006;2023-05-19T14:40:45;3.28;;;1.15;;
66429;SDS011;53242;51.694;10.006;2023-05-19T14:43:10;2.30;;;1.27;;
66429;SDS011;53242;51.694;10.006;2023-05-19T14:45:33;2.97;;;1.13;;
66429;SDS011;53242;51.694;10.006;2023-05-19T14:47:56;2.03;;;1.05;;
66429;SDS011;53242;51.694;10.006;2023-05-19T14:50:18;2.83;;;1.20;;